Time;durP1;ratioP1;P1;durP2;ratioP2;P2;SDS_P1;SDS_P2;PMS_P1;PMS_P2;Temp;Humidity;BMP_temperature;BMP_pressure;BME280_temperature;BME280_humidity;BME280_pressure;Samples;Min_cycle;Max_cycle;Signal;HPM_P1;HPM_P2
2022/10/04 00:02:17;;;;;;;3.13;1.77;;;;;;;11.58;83.36;101597.75;5051325;28;20201;-85
2022/10/04 00:04:47;;;;;;;5.80;1.77;;;;;;;11.56;83.66;101602.28;5051036;28;20201;-85
2022/10/04 00:07:19;;;;;;;7.50;1.70;;;;;;;11.53;83.75;101605.13;5049647;28;20229;-84
2022/10/04 00:09:48;;;;;;;6.47;1.70;;;;;;;11.53;83.65;101617.59;5050720;28;20805;-85
2022/10/04 00:12:22;;;;;;;4.87;1.70;;;;;;;11.51;83.95;101608.78;5052409;28;20209;-83
2022/10/04 00:14:53;;;;;;;6.07;1.70;;;;;;;11.51;84.03;101607.00;5042255;28;20198;-85
2022/10/04 00:17:25;;;;;;;7.80;1.93;;;;;;;11.47;84.04;101595.63;5042964;28;20231;-84
2022/10/04 00:19:52;;;;;;;6.77;1.97;;;;;;;11.49;84.24;101593.72;5051722;28;20309;-84
2022/10/04 00:22:24;;;;;;;4.33;1.57;;;;;;;11.48;84.18;101597.34;5048719;28;20204;-84
2022/10/04 00:25:19;;;;;;;6.80;1.80;;;;;;;11.46;84.45;101593.88;5050661;28;20646;-85
2022/10/04 00:28:28;;;;;;;4.27;1.80;;;;;;;11.46;84.33;101593.88;5044545;28;20584;-85
2022/10/04 00:31:15;;;;;;;5.70;1.93;;;;;;;11.46;84.53;101582.38;5051712;28;20208;-84
2022/10/04 00:33:43;;;;;;;2.97;1.80;;;;;;;11.45;84.57;101586.00;5044372;28;20297;-84
2022/10/04 00:36:38;;;;;;;3.40;1.60;;;;;;;11.45;84.55;101588.66;5048191;28;20236;-83
2022/10/04 00:39:38;;;;;;;4.53;2.00;;;;;;;11.44;84.49;101585.13;5046782;28;20279;-83
2022/10/04 00:42:25;;;;;;;5.50;1.90;;;;;;;11.45;84.78;101583.31;5047131;28;20244;-84
2022/10/04 00:44:57;;;;;;;3.83;1.87;;;;;;;11.46;84.87;101587.72;5047518;28;20199;-83
2022/10/04 00:47:30;;;;;;;5.83;1.70;;;;;;;11.46;84.93;101579.72;5045022;28;20571;-84
2022/10/04 00:50:04;;;;;;;4.13;1.30;;;;;;;11.46;84.98;101577.06;5049965;28;20195;-85
2022/10/04 00:52:34;;;;;;;6.17;1.50;;;;;;;11.46;85.10;101582.38;5050679;28;20203;-83
2022/10/04 00:55:07;;;;;;;4.87;1.50;;;;;;;11.47;85.14;101568.06;5052000;28;20231;-83
2022/10/04 00:57:40;;;;;;;4.40;1.13;;;;;;;11.46;85.01;101561.88;5045822;28;20230;-84
2022/10/04 01:00:13;;;;;;;3.43;1.07;;;;;;;11.46;85.06;101553.03;5046938;28;20220;-84
2022/10/04 01:02:51;;;;;;;6.03;1.50;;;;;;;11.46;84.94;101556.53;5046167;28;20203;-84
2022/10/04 01:05:22;;;;;;;4.67;1.27;;;;;;;11.46;84.86;101555.72;5050266;28;20236;-83
2022/10/04 01:07:53;;;;;;;6.03;1.97;;;;;;;11.46;84.90;101553.03;5045050;28;20706;-84
2022/10/04 01:10:22;;;;;;;5.23;1.60;;;;;;;11.45;85.00;101554.84;5042971;28;20210;-84
2022/10/04 01:12:56;;;;;;;8.60;1.47;;;;;;;11.46;84.95;101561.03;5051914;28;20213;-84
2022/10/04 01:15:31;;;;;;;4.17;1.27;;;;;;;11.46;85.05;101561.03;5049429;28;20584;-84
2022/10/04 01:18:10;;;;;;;6.57;1.30;;;;;;;11.46;84.90;101550.38;5051328;28;20222;-84
2022/10/04 01:20:39;;;;;;;4.87;1.20;;;;;;;11.46;85.14;101561.88;5047692;28;20204;-84
2022/10/04 01:23:09;;;;;;;5.60;1.50;;;;;;;11.46;85.04;101550.38;5050845;28;20203;-83
2022/10/04 01:25:44;;;;;;;6.30;1.50;;;;;;;11.45;85.10;101551.31;5052040;28;20239;-83
2022/10/04 01:28:10;;;;;;;3.20;1.20;;;;;;;11.45;85.18;101548.66;5047743;28;20271;-83
2022/10/04 01:30:37;;;;;;;4.93;1.17;;;;;;;11.44;85.29;101542.44;5046838;28;20222;-84
2022/10/04 01:33:05;;;;;;;3.80;1.40;;;;;;;11.44;85.19;101546.94;5044787;28;20210;-84
2022/10/04 01:35:34;;;;;;;4.80;1.50;;;;;;;11.42;85.35;101539.00;5052013;28;20211;-83
2022/10/04 01:38:01;;;;;;;4.67;1.17;;;;;;;11.43;85.39;101523.84;5050329;28;20258;-84
2022/10/04 01:40:31;;;;;;;7.23;1.67;;;;;;;11.43;85.60;101523.84;5048111;28;20405;-84
2022/10/04 01:43:04;;;;;;;3.73;1.17;;;;;;;11.42;85.44;101527.47;5050190;28;20203;-84
2022/10/04 01:45:38;;;;;;;5.27;1.37;;;;;;;11.43;85.67;101521.19;5045901;28;20196;-84
2022/10/04 01:48:08;;;;;;;6.17;1.50;;;;;;;11.43;85.59;101518.53;5049493;28;20214;-83
2022/10/04 01:50:40;;;;;;;4.67;1.53;;;;;;;11.43;85.56;101507.84;5044716;28;20207;-83
2022/10/04 01:53:14;;;;;;;4.80;1.30;;;;;;;11.43;85.65;101523.84;5044610;28;20204;-84
2022/10/04 01:55:47;;;;;;;4.80;1.60;;;;;;;11.43;85.59;101529.19;5050334;28;20551;-84
2022/10/04 01:58:18;;;;;;;7.10;1.43;;;;;;;11.43;85.82;101522.06;5048116;28;21255;-84
2022/10/04 02:00:51;;;;;;;6.37;1.53;;;;;;;11.43;85.74;101521.19;5046318;28;20221;-83
2022/10/04 02:03:23;;;;;;;5.33;1.50;;;;;;;11.43;85.83;101507.84;5050357;28;20256;-85
2022/10/04 02:05:54;;;;;;;6.60;1.30;;;;;;;11.44;85.56;101512.25;5039061;28;20220;-85
2022/10/04 02:08:26;;;;;;;6.60;1.53;;;;;;;11.44;86.10;101521.13;5045378;28;20207;-84
2022/10/04 02:10:55;;;;;;;4.63;1.33;;;;;;;11.46;86.05;101527.19;5042948;28;20200;-85
2022/10/04 02:13:24;;;;;;;4.67;1.50;;;;;;;11.46;85.83;101513.03;5050900;28;20620;-85
2022/10/04 02:15:51;;;;;;;3.87;1.07;;;;;;;11.49;85.91;101519.03;5051838;28;20258;-86
2022/10/04 02:18:21;;;;;;;4.77;1.77;;;;;;;11.50;85.97;101519.91;5055138;28;20220;-84
2022/10/04 02:20:49;;;;;;;5.40;1.30;;;;;;;11.51;85.95;101510.09;5047340;28;20226;-83
2022/10/04 02:23:18;;;;;;;4.93;1.50;;;;;;;11.52;85.84;101501.16;5047602;28;20218;-83
2022/10/04 02:25:45;;;;;;;3.87;1.23;;;;;;;11.51;86.14;101494.94;5050011;28;20203;-83
2022/10/04 02:28:14;;;;;;;4.47;1.10;;;;;;;11.53;85.86;101493.06;5048397;28;20226;-84
2022/10/04 02:32:56;;;;;;;6.57;1.40;;;;;;;11.54;85.94;101491.25;5045250;28;20198;-83
2022/10/04 02:33:29;;;;;;;3.67;1.30;;;;;;;11.53;85.67;101486.88;5050772;28;20208;-83
2022/10/04 02:35:57;;;;;;;5.07;1.10;;;;;;;11.54;85.92;101489.47;5055378;28;20249;-84
2022/10/04 02:38:30;;;;;;;7.30;1.30;;;;;;;11.54;85.76;101492.13;5049184;28;20212;-83
2022/10/04 02:41:02;;;;;;;2.93;0.97;;;;;;;11.55;85.68;101491.19;5051719;28;20213;-84
2022/10/04 02:43:35;;;;;;;6.27;1.50;;;;;;;11.54;85.57;101481.44;5050663;28;20209;-84
2022/10/04 02:46:06;;;;;;;8.03;1.80;;;;;;;11.55;85.65;101493.84;5048145;28;20251;-83
2022/10/04 02:48:40;;;;;;;3.90;1.43;;;;;;;11.56;85.43;101486.72;5052579;28;20210;-84
2022/10/04 02:51:16;;;;;;;4.37;1.23;;;;;;;11.56;85.75;101487.56;5055100;28;20210;-85
2022/10/04 02:53:52;;;;;;;3.73;1.47;;;;;;;11.57;85.62;101483.97;5053661;28;20216;-83
2022/10/04 02:56:21;;;;;;;7.67;1.40;;;;;;;11.57;85.58;101477.75;5052757;28;20235;-83
2022/10/04 02:58:49;;;;;;;4.73;1.60;;;;;;;11.57;85.47;101478.63;5052105;28;20227;-84
2022/10/04 03:01:25;;;;;;;6.83;1.37;;;;;;;11.58;85.60;101467.00;5053933;28;20205;-83
2022/10/04 03:03:54;;;;;;;3.97;1.33;;;;;;;11.58;85.48;101469.69;5051246;28;20744;-83
2022/10/04 03:06:23;;;;;;;3.63;1.40;;;;;;;11.59;85.61;101471.41;5052765;28;20231;-83
2022/10/04 03:08:52;;;;;;;7.30;1.20;;;;;;;11.59;85.37;101468.72;5050175;28;20204;-83
2022/10/04 03:11:21;;;;;;;4.67;1.10;;;;;;;11.57;85.26;101470.63;5050758;28;20202;-83
2022/10/04 03:13:52;;;;;;;4.50;1.10;;;;;;;11.58;85.40;101475.00;5055572;28;20215;-83
2022/10/04 03:16:19;;;;;;;5.73;1.20;;;;;;;11.57;85.30;101467.94;5052362;28;20262;-84
2022/10/04 03:18:48;;;;;;;7.40;1.77;;;;;;;11.56;85.52;101458.22;5041298;28;20203;-83
2022/10/04 03:21:17;;;;;;;8.20;1.40;;;;;;;11.54;85.26;101468.13;5054233;28;20206;-83
2022/10/04 03:23:45;;;;;;;5.60;1.40;;;;;;;11.53;85.38;101469.06;5048721;28;20197;-85
2022/10/04 03:26:24;;;;;;;5.47;1.33;;;;;;;11.52;85.38;101472.66;5047998;28;20225;-83
2022/10/04 03:28:52;;;;;;;4.93;1.40;;;;;;;11.51;85.47;101472.75;5046888;28;20200;-84
2022/10/04 03:31:19;;;;;;;5.77;1.50;;;;;;;11.48;85.76;101457.75;5046304;28;20590;-83
2022/10/04 03:33:47;;;;;;;5.90;1.50;;;;;;;11.46;85.47;101459.69;5046416;28;20593;-84
2022/10/04 03:36:17;;;;;;;5.10;1.40;;;;;;;11.44;85.68;101459.75;5045651;28;20227;-85
2022/10/04 03:38:44;;;;;;;5.50;1.90;;;;;;;11.43;85.96;101459.84;5048511;28;20199;-84
2022/10/04 03:41:12;;;;;;;6.13;1.80;;;;;;;11.40;86.05;101460.88;5047333;28;20235;-85
2022/10/04 03:43:44;;;;;;;5.87;2.20;;;;;;;11.40;86.15;101460.00;5044992;28;20209;-85
2022/10/04 03:46:14;;;;;;;6.77;2.30;;;;;;;11.39;86.22;101459.13;5045723;28;20232;-85
2022/10/04 03:48:44;;;;;;;7.03;2.43;;;;;;;11.37;86.49;101461.03;5042082;28;20215;-84
2022/10/04 03:51:16;;;;;;;4.13;1.63;;;;;;;11.37;86.74;101463.69;5043697;28;20690;-83
2022/10/04 03:53:45;;;;;;;5.83;1.53;;;;;;;11.35;86.61;101457.56;5048073;28;20216;-84
2022/10/04 03:56:15;;;;;;;3.70;1.60;;;;;;;11.35;86.77;101457.56;5046090;28;20220;-83
2022/10/04 03:58:43;;;;;;;6.03;1.60;;;;;;;11.34;86.82;101449.66;5042780;28;20689;-84
2022/10/04 04:01:30;;;;;;;5.23;1.73;;;;;;;11.33;86.85;101447.94;5047585;28;20250;-83
2022/10/04 04:04:02;;;;;;;3.37;1.23;;;;;;;11.33;86.87;101453.25;5045979;28;20198;-83
2022/10/04 04:06:37;;;;;;;3.17;1.27;;;;;;;11.30;87.06;101438.28;5045429;28;20314;-83
2022/10/04 04:09:06;;;;;;;4.37;1.53;;;;;;;11.31;87.24;101444.47;5040603;28;20225;-84
2022/10/04 04:11:33;;;;;;;6.37;1.57;;;;;;;11.29;87.37;101447.22;5043899;28;20229;-83
2022/10/04 04:14:05;;;;;;;3.27;1.67;;;;;;;11.28;87.28;101440.19;5036515;28;20210;-83
2022/10/04 04:16:34;;;;;;;5.53;1.70;;;;;;;11.29;87.42;101441.03;5041390;28;20235;-83
2022/10/04 04:19:04;;;;;;;6.17;2.40;;;;;;;11.28;87.54;101439.34;5040528;28;20212;-83
2022/10/04 04:21:31;;;;;;;5.63;2.10;;;;;;;11.26;87.33;101438.56;5045271;28;20204;-84
2022/10/04 04:24:02;;;;;;;7.90;2.27;;;;;;;11.25;87.30;101435.03;5041707;28;20216;-84
2022/10/04 04:26:38;;;;;;;7.13;2.00;;;;;;;11.24;87.43;101437.78;5044550;28;20227;-83
2022/10/04 04:29:09;;;;;;;6.77;1.80;;;;;;;11.22;87.49;101434.31;5044359;28;20203;-84
2022/10/04 04:31:42;;;;;;;4.77;2.00;;;;;;;11.21;87.64;101436.13;5043641;28;20201;-85
2022/10/04 04:34:18;;;;;;;6.07;1.60;;;;;;;11.21;87.62;101433.47;5048128;28;20207;-83
2022/10/04 04:36:45;;;;;;;7.07;5.87;;;;;;;11.20;87.53;101430.88;5043824;28;20223;-84
2022/10/04 04:39:36;;;;;;;5.60;4.40;;;;;;;11.19;87.63;101424.69;5046907;28;20219;-84
2022/10/04 04:42:05;;;;;;;13.93;10.07;;;;;;;11.18;87.76;101433.63;5040073;28;20205;-81
2022/10/04 04:44:32;;;;;;;12.63;8.10;;;;;;;11.16;87.82;101434.63;5052728;28;20206;-81
2022/10/04 04:47:00;;;;;;;9.60;5.30;;;;;;;11.16;87.77;101434.63;5048757;28;20232;-82
2022/10/04 04:49:30;;;;;;;8.87;4.20;;;;;;;11.14;87.83;101426.72;5055678;28;20208;-82
2022/10/04 04:51:57;;;;;;;5.70;2.50;;;;;;;11.13;87.73;101427.66;5050973;28;20211;-82
2022/10/04 04:54:26;;;;;;;7.17;3.07;;;;;;;11.09;87.94;101424.31;5052854;28;20649;-82
2022/10/04 04:56:55;;;;;;;5.40;2.30;;;;;;;11.10;87.76;101427.84;5052256;28;20230;-82
2022/10/04 04:59:23;;;;;;;4.40;1.80;;;;;;;11.08;87.91;101424.41;5053944;28;20199;-81
2022/10/04 05:01:50;;;;;;;5.83;1.73;;;;;;;11.06;87.96;101412.94;5051672;28;20220;-82
2022/10/04 05:04:20;;;;;;;2.93;1.50;;;;;;;11.04;87.94;101429.03;5054212;28;20207;-82
2022/10/04 05:06:49;;;;;;;5.80;1.83;;;;;;;11.02;87.91;101427.38;5053249;28;20223;-82
2022/10/04 05:09:23;;;;;;;5.57;2.20;;;;;;;11.00;88.19;101440.78;5052594;28;20647;-82
2022/10/04 05:11:52;;;;;;;6.30;1.90;;;;;;;10.97;88.01;101435.59;5044686;28;20237;-81
2022/10/04 05:14:20;;;;;;;6.90;1.80;;;;;;;10.95;88.03;101426.84;5044467;28;20624;-81
2022/10/04 05:16:49;;;;;;;6.40;2.10;;;;;;;10.94;88.30;101434.91;5045952;28;20222;-81
2022/10/04 05:19:21;;;;;;;5.27;1.90;;;;;;;10.92;88.34;101443.00;5046006;28;20230;-82
2022/10/04 05:21:49;;;;;;;5.87;1.97;;;;;;;10.91;88.38;101445.75;5048230;28;20247;-82
2022/10/04 05:24:22;;;;;;;5.53;1.77;;;;;;;10.90;88.46;101444.88;5049572;28;20203;-82
2022/10/04 05:26:54;;;;;;;5.33;1.87;;;;;;;10.88;88.60;101452.09;5046060;28;20226;-82
2022/10/04 05:29:25;;;;;;;4.90;1.90;;;;;;;10.87;88.75;101450.38;5049678;28;20219;-82
2022/10/04 05:32:02;;;;;;;6.53;1.93;;;;;;;10.86;88.67;101453.97;5047977;28;20206;-81
2022/10/04 05:34:35;;;;;;;4.10;1.80;;;;;;;10.84;88.86;101457.66;5046807;28;20233;-82
2022/10/04 05:37:13;;;;;;;5.70;1.87;;;;;;;10.82;89.05;101452.41;5045733;28;20862;-82
2022/10/04 05:39:47;;;;;;;5.30;2.07;;;;;;;10.82;89.12;101452.41;5041808;28;20210;-82
2022/10/04 05:42:20;;;;;;;3.80;2.10;;;;;;;10.82;89.32;101454.19;5043669;28;20215;-82
2022/10/04 05:44:51;;;;;;;9.90;2.50;;;;;;;10.81;89.32;101449.81;5042705;28;20263;-81
2022/10/04 05:47:22;;;;;;;3.37;1.63;;;;;;;10.79;89.30;101450.75;5047357;28;20233;-82
2022/10/04 05:49:54;;;;;;;6.50;2.50;;;;;;;10.79;89.48;101452.56;5040765;28;20234;-82
2022/10/04 05:52:29;;;;;;;4.60;1.93;;;;;;;10.78;89.51;101449.03;5039296;28;20683;-82
2022/10/04 05:55:21;;;;;;;5.33;2.20;;;;;;;10.78;89.74;101451.69;5046310;28;20206;-82
2022/10/04 05:57:59;;;;;;;5.30;2.23;;;;;;;10.78;89.65;101448.16;5044895;28;20704;-82
2022/10/04 06:00:34;;;;;;;6.13;2.80;;;;;;;10.76;89.77;101447.38;5049620;28;20213;-82
2022/10/04 06:03:18;;;;;;;6.40;2.40;;;;;;;10.75;89.79;101450.97;5046334;28;20198;-82
2022/10/04 06:05:52;;;;;;;4.47;2.10;;;;;;;10.75;90.02;101441.19;5046612;28;20197;-82
2022/10/04 06:08:40;;;;;;;3.67;2.20;;;;;;;10.75;90.13;101443.84;5051388;28;20225;-82
2022/10/04 06:11:22;;;;;;;5.10;2.47;;;;;;;10.75;90.08;101437.66;5048896;28;20654;-83
2022/10/04 06:14:16;;;;;;;6.53;1.90;;;;;;;10.74;89.96;101438.63;5049014;28;20217;-83
2022/10/04 06:16:57;;;;;;;5.53;2.20;;;;;;;10.74;90.10;101431.50;5052935;28;20236;-83
2022/10/04 06:19:43;;;;;;;6.80;2.67;;;;;;;10.73;90.09;101448.44;5041252;28;20205;-82
2022/10/04 06:22:18;;;;;;;5.97;2.70;;;;;;;10.74;90.31;101441.28;5051595;28;20217;-82
2022/10/04 06:24:51;;;;;;;4.97;2.10;;;;;;;10.74;90.71;101446.63;5053515;28;20827;-83
2022/10/04 06:27:27;;;;;;;4.87;2.70;;;;;;;10.75;90.48;101453.66;5050744;28;20231;-82
2022/10/04 06:30:02;;;;;;;7.47;2.57;;;;;;;10.77;90.84;101462.44;5053176;28;20675;-82
2022/10/04 06:32:57;;;;;;;7.47;2.60;;;;;;;10.80;90.69;101470.28;5052401;28;20201;-83
2022/10/04 06:35:44;;;;;;;7.40;2.30;;;;;;;10.83;90.99;101469.25;5052165;28;20210;-83
2022/10/04 06:38:46;;;;;;;8.00;2.70;;;;;;;10.85;90.90;101470.03;5051278;28;20213;-83
2022/10/04 06:41:51;;;;;;;7.27;2.87;;;;;;;10.88;90.88;101481.41;5040283;28;20226;-83
2022/10/04 06:44:53;;;;;;;7.27;2.20;;;;;;;10.89;90.74;101480.47;5009933;28;20572;-83
2022/10/04 06:47:39;;;;;;;5.47;2.10;;;;;;;10.91;90.87;101473.25;5040357;28;20252;-83
2022/10/04 06:50:21;;;;;;;6.57;2.40;;;;;;;10.93;91.06;101471.34;5049236;28;20209;-83
2022/10/04 06:52:57;;;;;;;5.13;2.40;;;;;;;10.97;90.91;101478.25;5049058;28;20636;-82
2022/10/04 06:55:55;;;;;;;6.77;2.40;;;;;;;11.02;91.24;101480.69;5050810;28;20660;-83
2022/10/04 06:58:40;;;;;;;8.20;2.60;;;;;;;11.04;91.35;101482.34;5049130;28;20643;-82
2022/10/04 07:01:22;;;;;;;9.07;2.53;;;;;;;11.08;91.47;101485.72;5047594;28;20215;-83
2022/10/04 07:03:54;;;;;;;6.63;2.20;;;;;;;11.12;91.25;101488.13;5055304;28;20543;-82
2022/10/04 07:06:25;;;;;;;4.73;2.50;;;;;;;11.16;91.37;101485.28;5054352;28;20230;-83
2022/10/04 07:08:58;;;;;;;8.80;2.70;;;;;;;11.20;91.39;101486.88;5045168;28;20676;-82
2022/10/04 07:11:31;;;;;;;5.97;2.10;;;;;;;11.23;91.44;101479.56;5048780;28;20198;-82
2022/10/04 07:14:05;;;;;;;7.10;2.53;;;;;;;11.27;91.44;101475.81;5049007;28;20248;-83
2022/10/04 07:16:43;;;;;;;4.00;2.23;;;;;;;11.30;91.28;101469.41;5047610;28;20228;-83
2022/10/04 07:19:32;;;;;;;7.17;2.70;;;;;;;11.34;91.18;101466.50;5051231;28;20440;-83
2022/10/04 07:22:11;;;;;;;3.43;2.53;;;;;;;11.37;91.00;101469.03;5046091;28;20230;-82
2022/10/04 07:25:03;;;;;;;6.67;3.00;;;;;;;11.40;90.95;101465.34;5052613;28;20196;-83
2022/10/04 07:27:34;;;;;;;6.57;3.30;;;;;;;11.45;91.01;101458.81;5050650;28;20665;-83
2022/10/04 07:30:04;;;;;;;6.50;2.77;;;;;;;11.49;91.30;101459.50;5048466;28;20210;-82
2022/10/04 07:32:35;;;;;;;4.77;2.63;;;;;;;11.54;91.04;101457.44;5044889;28;20215;-83
2022/10/04 07:35:12;;;;;;;5.67;2.80;;;;;;;11.58;91.35;101456.34;5047086;28;20206;-83
2022/10/04 07:37:50;;;;;;;7.27;3.20;;;;;;;11.65;91.28;101455.03;5045747;28;20706;-83
2022/10/04 07:40:24;;;;;;;7.47;3.30;;;;;;;11.75;91.80;101447.41;5054480;28;20208;-84
2022/10/04 07:42:58;;;;;;;10.07;2.47;;;;;;;11.86;92.00;101457.50;5053896;28;20719;-84
2022/10/04 07:45:31;;;;;;;5.73;2.77;;;;;;;11.94;91.84;101450.81;5053773;28;20252;-82
2022/10/04 07:48:05;;;;;;;5.63;2.70;;;;;;;12.04;91.42;101461.81;5045162;28;20207;-84
2022/10/04 07:50:38;;;;;;;5.43;2.53;;;;;;;12.11;91.13;101458.72;5049522;28;20196;-84
2022/10/04 07:53:09;;;;;;;5.60;2.70;;;;;;;12.19;90.71;101466.28;5050017;28;20202;-82
2022/10/04 07:55:45;;;;;;;6.10;2.53;;;;;;;12.27;89.89;101466.72;5055651;28;20218;-84
2022/10/04 07:58:21;;;;;;;5.07;2.37;;;;;;;12.35;89.37;101472.50;5052936;28;20214;-84
2022/10/04 08:00:54;;;;;;;6.67;2.50;;;;;;;12.43;88.89;101475.56;5044348;28;20213;-82
2022/10/04 08:03:42;;;;;;;7.20;2.60;;;;;;;12.50;88.59;101471.59;5049329;28;20228;-84
2022/10/04 08:06:14;;;;;;;4.43;2.70;;;;;;;12.60;88.16;101479.91;5046302;28;20225;-84
2022/10/04 08:08:57;;;;;;;5.90;2.47;;;;;;;12.67;87.75;101472.41;5048272;28;20558;-84
2022/10/04 08:11:36;;;;;;;6.23;2.60;;;;;;;12.74;86.91;101479.97;5049350;28;20212;-82
2022/10/04 08:14:13;;;;;;;4.73;2.73;;;;;;;12.80;86.46;101471.59;5050422;28;20197;-82
2022/10/04 08:16:54;;;;;;;6.97;2.67;;;;;;;12.86;85.52;101473.03;5046596;28;20704;-82
2022/10/04 08:19:39;;;;;;;10.83;3.00;;;;;;;12.92;85.63;101482.50;5050914;28;20854;-81
2022/10/04 08:22:17;;;;;;;6.97;2.90;;;;;;;12.99;85.39;101468.66;5049007;28;20224;-84
2022/10/04 08:24:55;;;;;;;5.20;2.37;;;;;;;13.08;85.22;101468.09;5053785;28;20216;-83
2022/10/04 08:27:35;;;;;;;6.43;2.80;;;;;;;13.18;84.75;101463.09;5053723;28;20311;-82
2022/10/04 08:30:05;;;;;;;9.87;2.30;;;;;;;13.25;84.27;101464.47;5049743;28;20205;-83
2022/10/04 08:32:45;;;;;;;4.07;2.00;;;;;;;13.32;83.37;101460.44;5050930;28;20233;-83
2022/10/04 08:35:28;;;;;;;6.60;2.03;;;;;;;13.41;82.85;101462.56;5045578;28;20637;-82
2022/10/04 08:38:22;;;;;;;5.07;2.10;;;;;;;13.50;81.90;101458.41;5046125;28;20268;-86
2022/10/04 08:41:15;;;;;;;4.33;1.70;;;;;;;13.58;80.73;101469.53;5039397;28;20228;-85
2022/10/04 08:44:26;;;;;;;6.60;2.13;;;;;;;13.64;80.01;101460.22;5008401;28;20202;-86
2022/10/04 08:47:24;;;;;;;4.10;2.03;;;;;;;13.69;79.27;101464.34;5053850;28;20218;-88
2022/10/04 08:50:24;;;;;;;5.10;2.07;;;;;;;13.84;79.04;101457.13;5058983;28;20437;-88
2022/10/04 08:53:19;;;;;;;5.50;2.07;;;;;;;14.03;78.07;101459.50;5053891;28;20400;-86
2022/10/04 08:56:04;;;;;;;4.30;1.57;;;;;;;14.17;76.96;101451.41;5064682;28;20227;-84
2022/10/04 08:59:05;;;;;;;6.10;1.80;;;;;;;14.30;75.57;101448.81;5058850;28;20213;-84
2022/10/04 09:01:54;;;;;;;5.30;2.00;;;;;;;14.46;75.00;101452.22;5059355;28;20263;-85
2022/10/04 09:04:48;;;;;;;2.60;1.60;;;;;;;14.61;74.03;101450.31;5062718;28;20197;-85
2022/10/04 09:07:51;;;;;;;3.60;2.20;;;;;;;14.72;73.10;101456.66;5060886;28;20229;-85
2022/10/04 09:10:43;;;;;;;3.13;1.63;;;;;;;14.84;71.88;101444.25;5060711;28;20201;-83
2022/10/04 09:13:30;;;;;;;5.70;1.97;;;;;;;14.95;71.11;101452.41;5056696;28;20194;-85
2022/10/04 09:16:14;;;;;;;4.30;2.10;;;;;;;15.04;71.04;101454.47;5059443;28;20254;-84
2022/10/04 09:18:58;;;;;;;5.23;2.20;;;;;;;15.19;70.75;101450.72;5054168;28;20239;-85
2022/10/04 09:21:37;;;;;;;4.80;1.80;;;;;;;15.28;70.17;101442.00;5057295;28;20214;-86
2022/10/04 09:24:33;;;;;;;3.80;1.70;;;;;;;15.42;69.78;101448.22;5057547;28;20220;-84
2022/10/04 09:27:13;;;;;;;5.10;1.77;;;;;;;15.54;69.04;101439.31;5048097;28;20231;-87
2022/10/04 09:29:56;;;;;;;4.87;1.87;;;;;;;15.66;67.95;101443.84;5054954;28;20211;-83
2022/10/04 09:32:47;;;;;;;5.03;1.90;;;;;;;15.75;67.61;101443.19;5047760;28;20207;-86
2022/10/04 09:35:31;;;;;;;2.60;1.53;;;;;;;15.84;66.94;101450.56;5061205;28;20597;-88
2022/10/04 09:38:17;;;;;;;5.00;1.90;;;;;;;15.89;65.83;101448.41;5057366;28;20199;-88
2022/10/04 09:41:05;;;;;;;6.43;1.83;;;;;;;15.97;65.83;101448.69;5057997;28;20212;-85
2022/10/04 09:44:17;;;;;;;5.53;1.60;;;;;;;16.09;65.76;101454.16;5057391;28;20220;-84
2022/10/04 09:47:12;;;;;;;5.43;1.70;;;;;;;16.19;64.72;101447.97;5057600;28;20273;-85
2022/10/04 09:50:17;;;;;;;5.23;1.67;;;;;;;16.28;64.69;101449.13;5056838;28;20205;-88
2022/10/04 09:52:52;;;;;;;6.07;1.67;;;;;;;16.37;64.98;101445.75;5054460;28;20973;-87
2022/10/04 09:55:40;;;;;;;4.40;1.67;;;;;;;16.44;64.69;101447.00;5056685;28;20239;-84
2022/10/04 09:58:28;;;;;;;3.43;1.53;;;;;;;16.56;64.56;101438.00;5049677;28;20198;-83
2022/10/04 10:01:03;;;;;;;6.97;2.00;;;;;;;16.68;64.42;101438.94;5045476;28;20204;-84
2022/10/04 10:03:46;;;;;;;6.30;1.80;;;;;;;16.78;63.76;101433.72;5048073;28;20280;-82
2022/10/04 10:06:40;;;;;;;5.83;1.50;;;;;;;16.86;62.99;101436.66;5045989;28;20234;-84
2022/10/04 10:13:38;;;;;;;5.10;1.47;;;;;;;16.91;62.52;101429.09;5045014;28;20206;-84
2022/10/04 10:15:30;;;;;;;3.07;1.20;;;;;;;17.08;61.02;101414.31;5042236;28;20217;-83
2022/10/04 10:18:08;;;;;;;5.83;1.83;;;;;;;17.14;61.07;101414.72;5046900;28;20230;-82
2022/10/04 10:20:53;;;;;;;3.57;1.40;;;;;;;17.26;61.38;101413.72;5052002;28;20292;-84
2022/10/04 10:23:33;;;;;;;3.27;1.30;;;;;;;17.38;60.44;101411.06;5050234;28;20194;-82
2022/10/04 10:26:21;;;;;;;5.37;1.47;;;;;;;17.48;59.01;101393.16;5039616;28;20226;-81
2022/10/04 10:29:22;;;;;;;2.93;1.63;;;;;;;17.52;58.29;101395.50;5041163;28;20395;-82
2022/10/04 10:32:10;;;;;;;5.37;1.70;;;;;;;17.46;58.58;101401.38;5041128;28;20200;-83
2022/10/04 10:34:57;;;;;;;4.63;1.53;;;;;;;17.44;58.33;101413.25;5049614;28;20202;-82
2022/10/04 10:37:37;;;;;;;2.33;1.30;;;;;;;17.42;58.50;101407.13;5046435;28;20219;-80
2022/10/04 10:40:23;;;;;;;5.70;1.90;;;;;;;17.43;58.07;101398.91;5046790;28;20211;-81
2022/10/04 10:43:24;;;;;;;2.43;1.33;;;;;;;17.39;57.69;101402.84;5052391;28;20213;-81
2022/10/04 10:46:04;;;;;;;4.70;1.60;;;;;;;17.35;57.74;101407.63;5035881;28;20742;-81
2022/10/04 10:48:52;;;;;;;3.23;1.80;;;;;;;17.39;57.75;101404.66;5044893;28;20235;-83
2022/10/04 10:51:54;;;;;;;8.87;2.10;;;;;;;17.44;57.63;101400.63;5046248;28;20773;-84
2022/10/04 10:54:58;;;;;;;3.80;1.93;;;;;;;17.52;58.03;101397.34;5048467;28;20217;-83
2022/10/04 10:57:57;;;;;;;2.43;1.37;;;;;;;17.57;57.25;101397.81;5024439;28;20231;-84
2022/10/04 11:00:26;;;;;;;2.83;1.60;;;;;;;17.57;56.97;101395.97;5051623;28;20206;-84
2022/10/04 11:03:49;;;;;;;3.47;1.33;;;;;;;17.66;56.60;101384.50;5046117;28;20247;-83
2022/10/04 11:06:40;;;;;;;3.20;2.37;;;;;;;17.69;56.27;101383.38;5034737;28;20586;-83
2022/10/04 11:09:32;;;;;;;4.90;1.63;;;;;;;17.73;56.73;101373.22;5051739;28;20219;-83
2022/10/04 11:12:43;;;;;;;6.43;1.57;;;;;;;17.74;56.78;101372.22;5053048;28;20230;-83
2022/10/04 11:15:48;;;;;;;2.47;1.73;;;;;;;17.76;56.74;101372.94;5017157;28;20214;-83
2022/10/04 11:19:00;;;;;;;3.17;1.30;;;;;;;17.77;56.29;101370.13;5048657;28;20200;-83
2022/10/04 11:22:05;;;;;;;6.00;1.63;;;;;;;17.80;56.83;101361.81;5042217;28;20214;-83
2022/10/04 11:25:03;;;;;;;7.90;2.17;;;;;;;17.85;56.94;101366.81;5049345;28;20214;-83
2022/10/04 11:27:43;;;;;;;3.80;1.40;;;;;;;17.91;56.15;101363.63;5053705;28;20231;-83
2022/10/04 11:30:22;;;;;;;4.37;1.80;;;;;;;17.94;55.83;101358.81;5043372;28;20209;-82
2022/10/04 11:33:19;;;;;;;2.83;1.30;;;;;;;17.91;56.04;101350.16;5051689;28;20200;-83
2022/10/04 11:36:11;;;;;;;4.63;1.77;;;;;;;17.92;56.02;101350.00;5053691;28;20868;-83
2022/10/04 11:39:04;;;;;;;5.33;1.70;;;;;;;17.92;55.77;101352.69;5052481;28;20262;-83
2022/10/04 11:41:49;;;;;;;5.77;1.80;;;;;;;17.89;56.00;101347.59;5050069;28;20211;-83
2022/10/04 11:44:39;;;;;;;4.67;1.77;;;;;;;17.92;55.75;101346.44;5044582;28;20261;-83
2022/10/04 11:47:17;;;;;;;3.83;1.80;;;;;;;17.92;55.40;101339.22;5046525;28;20758;-83
2022/10/04 11:49:57;;;;;;;3.03;1.60;;;;;;;17.88;55.82;101342.31;5052399;28;20201;-83
2022/10/04 11:52:48;;;;;;;7.20;1.97;;;;;;;17.83;56.12;101342.69;5053257;28;20224;-83
2022/10/04 11:55:42;;;;;;;3.07;1.80;;;;;;;17.84;56.35;101344.41;5048045;28;20216;-83
2022/10/04 11:58:16;;;;;;;3.00;2.00;;;;;;;17.82;56.52;101335.59;5053356;28;20729;-83
2022/10/04 12:01:03;;;;;;;3.33;1.97;;;;;;;17.80;56.55;101334.00;5053188;28;20613;-83
2022/10/04 12:03:53;;;;;;;5.30;2.00;;;;;;;17.79;56.76;101335.84;5050114;28;20223;-83
2022/10/04 12:06:33;;;;;;;5.57;2.17;;;;;;;17.77;56.73;101327.03;5048518;28;20231;-83
2022/10/04 12:09:12;;;;;;;3.07;1.67;;;;;;;17.77;56.73;101331.56;5044709;28;20200;-83
2022/10/04 12:15:06;;;;;;;3.20;2.00;;;;;;;17.78;56.85;101317.09;5046278;28;20205;-83
2022/10/04 12:18:10;;;;;;;5.27;1.83;;;;;;;17.77;57.20;101312.69;5051454;28;20227;-83
2022/10/04 12:21:13;;;;;;;4.37;2.37;;;;;;;17.74;56.62;101311.09;5019366;28;20224;-83
2022/10/04 12:23:57;;;;;;;3.13;2.10;;;;;;;17.76;56.85;101305.59;5033453;28;20231;-82
2022/10/04 12:27:02;;;;;;;4.23;1.90;;;;;;;17.79;57.29;101299.94;5046667;28;20226;-82